Villa Grove, CO

3:18 PM MDT on August 23, 2016 (GMT -0600)
Monarch Pass | | Change Station

Elev 12031 ft 38.48 °N, 106.32 °W | Updated 6 minutes ago

Heavy Thunderstorms and Rain
Heavy Thunderstorm Rain
41 °F
Feels Like 35 °F
N
10
Wind Variable Wind from North

Today
High -- | Low -- °F
--% Chance of Precip.
Yesterday
High -- | Low -- °F
Precip. -- in
Pressure 30.64 in
Visibility 4.0 miles
Clouds Scattered Clouds 3100 ft
Mostly Cloudy 4100 ft
Overcast 6000 ft
Windchill 35 °F
Dew Point 34 °F
Humidity 76%
Rainfall 0.00 in
Snow Depth Not available.
6:26 AM 7:46 PM
Waning Gibbous, 64% visible
METAR KMYP 232112Z AUTO 35009KT 4SM +VCTSRA SCT031 BKN041 OVC060 05/01 A3064 RMK AO2 LTG DSNT ALQS
Pressure 30.64 in
Visibility 4.0 miles
Clouds Scattered Clouds 3100 ft
Mostly Cloudy 4100 ft
Overcast 6000 ft
Windchill 35 °F
Dew Point 34 °F
Humidity 76%
Rainfall 0.00 in
Snow Depth Not available.
6:26 AM 7:46 PM
Waning Gibbous, 64% visible
METAR KMYP 232112Z AUTO 35009KT 4SM +VCTSRA SCT031 BKN041 OVC060 05/01 A3064 RMK AO2 LTG DSNT ALQS

10-Day Weather Forecast

Almanac

Astronomy

Aug. 23, 2016 Rise Set
Actual Time
Civil Twilight
Nautical Twilight
Astronomical Twilight
Moon
Length of Visible Light
Length of Day
Tomorrow will be .
, % of the Moon is Illuminated

Today's Extremes

State Highs State Lows

Community

WunderPhotos

Upload Photos

1,934,456 photos uploaded!

WunderBlog® & News

Nearby

Air Quality

  Air Quality AQ Index Pollutant
Not available.

Snow Depth

Station Depth Elevation

Earthquake Activity

City Distance Mag. Time & Date
Minimum magnitude displayed is 2.5.

Coastal Water Temperatures

Place Temperature

Stations

Nearby Weather Stations

Station Location Temp. Windchill Dew Point Humidity Wind Precip. Elev Updated Type
                   

Watches & Warnings

There are currently no watches in effect.